sensor_id;sensor_type;location;lat;lon;timestamp;temperature;humidity
17296;DHT22;8766;51.480;6.872;2022-11-03T00:00:57;13.00;64.00
17296;DHT22;8766;51.480;6.872;2022-11-03T00:03:25;13.00;64.10
17296;DHT22;8766;51.480;6.872;2022-11-03T00:05:52;13.00;64.10
17296;DHT22;8766;51.480;6.872;2022-11-03T00:08:31;13.00;64.10
17296;DHT22;8766;51.480;6.872;2022-11-03T00:11:04;13.00;64.10
17296;DHT22;8766;51.480;6.872;2022-11-03T00:13:31;13.00;64.10
17296;DHT22;8766;51.480;6.872;2022-11-03T00:15:58;13.00;64.10
17296;DHT22;8766;51.480;6.872;2022-11-03T00:18:25;13.00;64.00
17296;DHT22;8766;51.480;6.872;2022-11-03T00:20:56;13.00;64.00
17296;DHT22;8766;51.480;6.872;2022-11-03T00:23:25;13.00;63.90
17296;DHT22;8766;51.480;6.872;2022-11-03T00:25:52;13.00;63.90
17296;DHT22;8766;51.480;6.872;2022-11-03T00:28:20;13.10;63.90
17296;DHT22;8766;51.480;6.872;2022-11-03T00:30:47;13.10;64.00
17296;DHT22;8766;51.480;6.872;2022-11-03T00:33:14;13.10;63.90
17296;DHT22;8766;51.480;6.872;2022-11-03T00:35:41;13.10;63.90
17296;DHT22;8766;51.480;6.872;2022-11-03T00:38:08;13.10;63.90
17296;DHT22;8766;51.480;6.872;2022-11-03T00:40:35;13.10;63.90
17296;DHT22;8766;51.480;6.872;2022-11-03T00:43:02;13.10;63.90
17296;DHT22;8766;51.480;6.872;2022-11-03T00:45:30;13.10;63.90
17296;DHT22;8766;51.480;6.872;2022-11-03T00:47:57;13.10;63.90
17296;DHT22;8766;51.480;6.872;2022-11-03T00:50:41;13.10;63.80
17296;DHT22;8766;51.480;6.872;2022-11-03T00:53:08;13.10;63.90
17296;DHT22;8766;51.480;6.872;2022-11-03T00:55:35;13.10;63.80
17296;DHT22;8766;51.480;6.872;2022-11-03T00:58:01;13.10;63.80
17296;DHT22;8766;51.480;6.872;2022-11-03T01:00:30;13.10;63.70
17296;DHT22;8766;51.480;6.872;2022-11-03T01:02:56;13.10;63.70
17296;DHT22;8766;51.480;6.872;2022-11-03T01:05:23;13.10;63.70
17296;DHT22;8766;51.480;6.872;2022-11-03T01:08:07;13.20;63.70
17296;DHT22;8766;51.480;6.872;2022-11-03T01:10:37;13.20;63.70
17296;DHT22;8766;51.480;6.872;2022-11-03T01:13:24;13.20;63.70
17296;DHT22;8766;51.480;6.872;2022-11-03T01:15:55;13.20;63.70
17296;DHT22;8766;51.480;6.872;2022-11-03T01:18:22;13.20;63.70
17296;DHT22;8766;51.480;6.872;2022-11-03T01:20:53;13.20;63.60
17296;DHT22;8766;51.480;6.872;2022-11-03T01:23:21;13.20;63.70
17296;DHT22;8766;51.480;6.872;2022-11-03T01:25:48;13.20;63.70
17296;DHT22;8766;51.480;6.872;2022-11-03T01:28:15;13.20;63.70
17296;DHT22;8766;51.480;6.872;2022-11-03T01:30:42;13.20;63.70
17296;DHT22;8766;51.480;6.872;2022-11-03T01:33:10;13.10;63.70
17296;DHT22;8766;51.480;6.872;2022-11-03T01:35:37;13.10;63.80
17296;DHT22;8766;51.480;6.872;2022-11-03T01:38:04;13.10;63.80
17296;DHT22;8766;51.480;6.872;2022-11-03T01:40:31;13.10;63.90
17296;DHT22;8766;51.480;6.872;2022-11-03T01:43:16;13.00;63.90
17296;DHT22;8766;51.480;6.872;2022-11-03T01:45:44;13.00;64.10
17296;DHT22;8766;51.480;6.872;2022-11-03T01:48:14;13.00;64.10
17296;DHT22;8766;51.480;6.872;2022-11-03T01:50:43;13.00;64.20
17296;DHT22;8766;51.480;6.872;2022-11-03T01:53:11;12.90;64.10
17296;DHT22;8766;51.480;6.872;2022-11-03T01:55:39;12.90;64.20
17296;DHT22;8766;51.480;6.872;2022-11-03T01:58:09;12.90;64.20
17296;DHT22;8766;51.480;6.872;2022-11-03T02:00:39;12.90;64.30
17296;DHT22;8766;51.480;6.872;2022-11-03T02:03:06;12.90;64.30
17296;DHT22;8766;51.480;6.872;2022-11-03T02:05:35;12.90;64.20
17296;DHT22;8766;51.480;6.872;2022-11-03T02:08:05;12.90;64.30
17296;DHT22;8766;51.480;6.872;2022-11-03T02:10:34;12.90;64.20
17296;DHT22;8766;51.480;6.872;2022-11-03T02:13:07;12.90;64.20
17296;DHT22;8766;51.480;6.872;2022-11-03T02:15:37;12.90;64.20
17296;DHT22;8766;51.480;6.872;2022-11-03T02:18:04;12.90;64.10
17296;DHT22;8766;51.480;6.872;2022-11-03T02:20:34;12.90;64.20
17296;DHT22;8766;51.480;6.872;2022-11-03T02:23:16;13.00;64.80
17296;DHT22;8766;51.480;6.872;2022-11-03T02:25:49;12.90;64.10
17296;DHT22;8766;51.480;6.872;2022-11-03T02:28:19;13.00;64.10
17296;DHT22;8766;51.480;6.872;2022-11-03T02:30:52;13.00;64.10
17296;DHT22;8766;51.480;6.872;2022-11-03T02:33:30;13.00;64.20
17296;DHT22;8766;51.480;6.872;2022-11-03T02:36:02;13.00;64.20
17296;DHT22;8766;51.480;6.872;2022-11-03T02:38:33;12.90;64.10
17296;DHT22;8766;51.480;6.872;2022-11-03T02:41:05;12.90;64.10
17296;DHT22;8766;51.480;6.872;2022-11-03T02:43:33;12.90;64.10
17296;DHT22;8766;51.480;6.872;2022-11-03T02:46:02;12.90;64.10
17296;DHT22;8766;51.480;6.872;2022-11-03T02:48:30;12.90;64.10
17296;DHT22;8766;51.480;6.872;2022-11-03T02:50:57;12.90;64.10
17296;DHT22;8766;51.480;6.872;2022-11-03T02:53:26;12.90;64.10
17296;DHT22;8766;51.480;6.872;2022-11-03T02:55:59;12.90;64.20
17296;DHT22;8766;51.480;6.872;2022-11-03T02:58:34;12.90;64.20
17296;DHT22;8766;51.480;6.872;2022-11-03T03:01:07;12.90;64.20
17296;DHT22;8766;51.480;6.872;2022-11-03T03:03:41;12.90;64.20
17296;DHT22;8766;51.480;6.872;2022-11-03T03:06:15;12.90;64.20
17296;DHT22;8766;51.480;6.872;2022-11-03T03:08:46;12.90;64.20
17296;DHT22;8766;51.480;6.872;2022-11-03T03:11:13;13.00;64.20
17296;DHT22;8766;51.480;6.872;2022-11-03T03:13:42;13.00;64.20
17296;DHT22;8766;51.480;6.872;2022-11-03T03:16:14;13.00;64.10
17296;DHT22;8766;51.480;6.872;2022-11-03T03:18:46;13.00;64.10
17296;DHT22;8766;51.480;6.872;2022-11-03T03:21:20;13.00;64.10
17296;DHT22;8766;51.480;6.872;2022-11-03T03:23:51;13.00;64.10
17296;DHT22;8766;51.480;6.872;2022-11-03T03:26:24;13.00;64.10
17296;DHT22;8766;51.480;6.872;2022-11-03T03:28:57;13.00;64.20
17296;DHT22;8766;51.480;6.872;2022-11-03T03:31:26;13.00;64.20
17296;DHT22;8766;51.480;6.872;2022-11-03T03:33:55;13.00;64.20
17296;DHT22;8766;51.480;6.872;2022-11-03T03:36:24;13.00;64.20
17296;DHT22;8766;51.480;6.872;2022-11-03T03:38:55;13.00;64.30
17296;DHT22;8766;51.480;6.872;2022-11-03T03:41:24;12.90;64.20
17296;DHT22;8766;51.480;6.872;2022-11-03T03:43:54;12.90;64.30
17296;DHT22;8766;51.480;6.872;2022-11-03T03:46:28;12.90;64.30
17296;DHT22;8766;51.480;6.872;2022-11-03T03:48:57;12.90;64.30
17296;DHT22;8766;51.480;6.872;2022-11-03T03:51:25;12.90;64.40
17296;DHT22;8766;51.480;6.872;2022-11-03T03:53:53;12.90;64.30
17296;DHT22;8766;51.480;6.872;2022-11-03T03:56:24;12.90;64.30
17296;DHT22;8766;51.480;6.872;2022-11-03T03:58:52;12.90;64.30
17296;DHT22;8766;51.480;6.872;2022-11-03T04:01:19;12.90;64.30
17296;DHT22;8766;51.480;6.872;2022-11-03T04:03:47;12.90;64.30
17296;DHT22;8766;51.480;6.872;2022-11-03T04:06:14;13.00;64.30
17296;DHT22;8766;51.480;6.872;2022-11-03T04:08:41;13.00;64.30
17296;DHT22;8766;51.480;6.872;2022-11-03T04:11:08;13.00;64.30
17296;DHT22;8766;51.480;6.872;2022-11-03T04:13:52;13.00;64.30
17296;DHT22;8766;51.480;6.872;2022-11-03T04:16:36;13.00;64.20
17296;DHT22;8766;51.480;6.872;2022-11-03T04:19:22;13.10;64.10
17296;DHT22;8766;51.480;6.872;2022-11-03T04:22:06;13.10;64.10
17296;DHT22;8766;51.480;6.872;2022-11-03T04:24:43;13.10;63.90
17296;DHT22;8766;51.480;6.872;2022-11-03T04:27:28;13.20;63.90
17296;DHT22;8766;51.480;6.872;2022-11-03T04:29:57;13.20;63.90
17296;DHT22;8766;51.480;6.872;2022-11-03T04:32:25;13.20;63.90
17296;DHT22;8766;51.480;6.872;2022-11-03T04:34:54;13.20;63.90
17296;DHT22;8766;51.480;6.872;2022-11-03T04:37:20;13.20;63.90
17296;DHT22;8766;51.480;6.872;2022-11-03T04:39:47;13.10;64.00
17296;DHT22;8766;51.480;6.872;2022-11-03T04:42:17;13.20;64.00
17296;DHT22;8766;51.480;6.872;2022-11-03T04:44:45;13.20;64.00
17296;DHT22;8766;51.480;6.872;2022-11-03T04:47:13;13.20;64.00
17296;DHT22;8766;51.480;6.872;2022-11-03T04:49:41;13.20;63.90
17296;DHT22;8766;51.480;6.872;2022-11-03T04:52:14;13.20;63.90
17296;DHT22;8766;51.480;6.872;2022-11-03T04:54:42;13.20;63.90
17296;DHT22;8766;51.480;6.872;2022-11-03T04:57:11;13.20;63.90
17296;DHT22;8766;51.480;6.872;2022-11-03T04:59:39;13.20;63.90
17296;DHT22;8766;51.480;6.872;2022-11-03T05:02:10;13.20;64.70
17296;DHT22;8766;51.480;6.872;2022-11-03T05:04:39;13.20;64.10
17296;DHT22;8766;51.480;6.872;2022-11-03T05:07:17;13.20;64.00
17296;DHT22;8766;51.480;6.872;2022-11-03T05:09:45;13.20;64.00
17296;DHT22;8766;51.480;6.872;2022-11-03T05:12:12;13.20;64.10
17296;DHT22;8766;51.480;6.872;2022-11-03T05:14:39;13.20;64.10
17296;DHT22;8766;51.480;6.872;2022-11-03T05:17:14;13.20;64.10
17296;DHT22;8766;51.480;6.872;2022-11-03T05:19:43;13.20;64.10
17296;DHT22;8766;51.480;6.872;2022-11-03T05:22:16;13.20;64.20
17296;DHT22;8766;51.480;6.872;2022-11-03T05:24:44;13.20;64.20
17296;DHT22;8766;51.480;6.872;2022-11-03T05:27:18;13.20;64.20
17296;DHT22;8766;51.480;6.872;2022-11-03T05:29:46;13.20;64.20
17296;DHT22;8766;51.480;6.872;2022-11-03T05:32:17;13.20;64.20
17296;DHT22;8766;51.480;6.872;2022-11-03T05:34:46;13.20;64.10
17296;DHT22;8766;51.480;6.872;2022-11-03T05:37:25;13.30;64.10
17296;DHT22;8766;51.480;6.872;2022-11-03T05:39:55;13.30;64.10
17296;DHT22;8766;51.480;6.872;2022-11-03T05:42:29;13.30;64.10
17296;DHT22;8766;51.480;6.872;2022-11-03T05:44:57;13.30;64.10
17296;DHT22;8766;51.480;6.872;2022-11-03T05:47:28;13.30;64.10
17296;DHT22;8766;51.480;6.872;2022-11-03T05:50:00;13.30;64.10
17296;DHT22;8766;51.480;6.872;2022-11-03T05:52:34;13.30;64.10
17296;DHT22;8766;51.480;6.872;2022-11-03T05:55:01;13.30;64.10
17296;DHT22;8766;51.480;6.872;2022-11-03T05:57:29;13.30;64.10
17296;DHT22;8766;51.480;6.872;2022-11-03T05:59:59;13.30;64.00
17296;DHT22;8766;51.480;6.872;2022-11-03T06:02:38;13.40;64.10
17296;DHT22;8766;51.480;6.872;2022-11-03T06:05:12;13.40;64.00
17296;DHT22;8766;51.480;6.872;2022-11-03T06:07:42;13.30;64.00
17296;DHT22;8766;51.480;6.872;2022-11-03T06:10:24;13.30;64.10
17296;DHT22;8766;51.480;6.872;2022-11-03T06:12:53;13.30;64.10
17296;DHT22;8766;51.480;6.872;2022-11-03T06:15:29;13.30;64.10
17296;DHT22;8766;51.480;6.872;2022-11-03T06:18:21;13.30;64.20
17296;DHT22;8766;51.480;6.872;2022-11-03T06:21:15;13.30;64.20
17296;DHT22;8766;51.480;6.872;2022-11-03T06:24:06;13.30;64.20
17296;DHT22;8766;51.480;6.872;2022-11-03T06:26:58;13.30;64.30
17296;DHT22;8766;51.480;6.872;2022-11-03T06:30:01;13.30;64.30
17296;DHT22;8766;51.480;6.872;2022-11-03T06:33:11;13.30;64.30
17296;DHT22;8766;51.480;6.872;2022-11-03T06:36:37;13.30;64.30
17296;DHT22;8766;51.480;6.872;2022-11-03T06:39:31;13.30;64.40
17296;DHT22;8766;51.480;6.872;2022-11-03T06:42:11;13.30;64.30
17296;DHT22;8766;51.480;6.872;2022-11-03T06:47:57;13.30;64.20
17296;DHT22;8766;51.480;6.872;2022-11-03T06:50:34;13.30;64.20
17296;DHT22;8766;51.480;6.872;2022-11-03T06:53:19;13.30;64.10
17296;DHT22;8766;51.480;6.872;2022-11-03T06:55:55;13.40;64.10
17296;DHT22;8766;51.480;6.872;2022-11-03T06:58:52;13.40;64.10
17296;DHT22;8766;51.480;6.872;2022-11-03T07:01:45;13.40;64.00
17296;DHT22;8766;51.480;6.872;2022-11-03T07:04:33;13.40;63.90
17296;DHT22;8766;51.480;6.872;2022-11-03T07:07:14;13.40;63.90
17296;DHT22;8766;51.480;6.872;2022-11-03T07:09:54;13.50;63.90
17296;DHT22;8766;51.480;6.872;2022-11-03T07:12:21;13.50;63.90
17296;DHT22;8766;51.480;6.872;2022-11-03T07:14:48;13.50;63.80
17296;DHT22;8766;51.480;6.872;2022-11-03T07:17:17;13.50;63.80
17296;DHT22;8766;51.480;6.872;2022-11-03T07:19:46;13.60;63.80
17296;DHT22;8766;51.480;6.872;2022-11-03T07:22:15;13.60;63.70
17296;DHT22;8766;51.480;6.872;2022-11-03T07:24:46;13.60;63.70
17296;DHT22;8766;51.480;6.872;2022-11-03T07:27:19;13.60;63.70
17296;DHT22;8766;51.480;6.872;2022-11-03T07:29:47;13.70;63.60
17296;DHT22;8766;51.480;6.872;2022-11-03T07:32:18;13.70;63.50
17296;DHT22;8766;51.480;6.872;2022-11-03T07:34:46;13.80;63.40
17296;DHT22;8766;51.480;6.872;2022-11-03T07:37:14;13.80;64.00
17296;DHT22;8766;51.480;6.872;2022-11-03T07:39:43;13.90;63.50
17296;DHT22;8766;51.480;6.872;2022-11-03T07:42:15;14.00;63.00
17296;DHT22;8766;51.480;6.872;2022-11-03T07:44:43;14.10;62.80
17296;DHT22;8766;51.480;6.872;2022-11-03T07:47:13;14.20;62.70
17296;DHT22;8766;51.480;6.872;2022-11-03T07:49:41;14.40;62.40
17296;DHT22;8766;51.480;6.872;2022-11-03T07:52:11;14.60;61.90
17296;DHT22;8766;51.480;6.872;2022-11-03T07:54:39;14.80;61.40
17296;DHT22;8766;51.480;6.872;2022-11-03T07:57:14;15.10;60.90
17296;DHT22;8766;51.480;6.872;2022-11-03T07:59:43;15.40;60.30
17296;DHT22;8766;51.480;6.872;2022-11-03T08:02:19;15.60;60.00
17296;DHT22;8766;51.480;6.872;2022-11-03T08:04:47;15.80;59.70
17296;DHT22;8766;51.480;6.872;2022-11-03T08:07:14;15.90;59.50
17296;DHT22;8766;51.480;6.872;2022-11-03T08:09:41;16.00;59.50
17296;DHT22;8766;51.480;6.872;2022-11-03T08:12:08;16.20;59.30
17296;DHT22;8766;51.480;6.872;2022-11-03T08:14:35;16.40;58.90
17296;DHT22;8766;51.480;6.872;2022-11-03T08:17:04;16.40;58.90
17296;DHT22;8766;51.480;6.872;2022-11-03T08:19:30;16.20;59.10
17296;DHT22;8766;51.480;6.872;2022-11-03T08:21:57;16.10;59.50
17296;DHT22;8766;51.480;6.872;2022-11-03T08:24:24;15.90;59.80
17296;DHT22;8766;51.480;6.872;2022-11-03T08:26:51;15.70;60.10
17296;DHT22;8766;51.480;6.872;2022-11-03T08:29:18;15.60;60.50
17296;DHT22;8766;51.480;6.872;2022-11-03T08:31:46;15.50;60.80
17296;DHT22;8766;51.480;6.872;2022-11-03T08:34:14;15.40;61.00
17296;DHT22;8766;51.480;6.872;2022-11-03T08:36:41;15.40;61.20
17296;DHT22;8766;51.480;6.872;2022-11-03T08:39:08;15.30;62.00
17296;DHT22;8766;51.480;6.872;2022-11-03T08:41:34;15.30;61.40
17296;DHT22;8766;51.480;6.872;2022-11-03T08:44:02;15.30;61.30
17296;DHT22;8766;51.480;6.872;2022-11-03T08:46:28;15.40;61.20
17296;DHT22;8766;51.480;6.872;2022-11-03T08:48:55;15.50;60.90
17296;DHT22;8766;51.480;6.872;2022-11-03T08:51:24;15.60;60.80
17296;DHT22;8766;51.480;6.872;2022-11-03T08:53:50;15.60;60.70
17296;DHT22;8766;51.480;6.872;2022-11-03T08:56:18;15.60;60.70
17296;DHT22;8766;51.480;6.872;2022-11-03T08:58:45;15.60;60.70
17296;DHT22;8766;51.480;6.872;2022-11-03T09:01:13;15.60;60.80
17296;DHT22;8766;51.480;6.872;2022-11-03T09:03:40;15.70;60.60
17296;DHT22;8766;51.480;6.872;2022-11-03T09:06:07;15.70;60.50
17296;DHT22;8766;51.480;6.872;2022-11-03T09:08:36;15.80;60.50
17296;DHT22;8766;51.480;6.872;2022-11-03T09:11:03;15.80;60.40
17296;DHT22;8766;51.480;6.872;2022-11-03T09:13:30;15.80;60.40
17296;DHT22;8766;51.480;6.872;2022-11-03T09:15:57;15.80;60.40
17296;DHT22;8766;51.480;6.872;2022-11-03T09:18:23;15.80;60.30
17296;DHT22;8766;51.480;6.872;2022-11-03T09:20:50;15.80;60.30
17296;DHT22;8766;51.480;6.872;2022-11-03T09:23:17;15.90;60.30
17296;DHT22;8766;51.480;6.872;2022-11-03T09:25:45;15.90;60.20
17296;DHT22;8766;51.480;6.872;2022-11-03T09:28:12;15.90;60.20
17296;DHT22;8766;51.480;6.872;2022-11-03T09:30:39;16.00;60.10
17296;DHT22;8766;51.480;6.872;2022-11-03T09:33:06;16.00;60.10
17296;DHT22;8766;51.480;6.872;2022-11-03T09:35:33;16.10;60.00
17296;DHT22;8766;51.480;6.872;2022-11-03T09:38:00;16.10;59.90
17296;DHT22;8766;51.480;6.872;2022-11-03T09:40:26;16.20;59.80
17296;DHT22;8766;51.480;6.872;2022-11-03T09:42:55;16.20;59.70
17296;DHT22;8766;51.480;6.872;2022-11-03T09:45:22;16.30;59.60
17296;DHT22;8766;51.480;6.872;2022-11-03T09:47:49;16.40;59.50
17296;DHT22;8766;51.480;6.872;2022-11-03T09:50:17;16.50;59.30
17296;DHT22;8766;51.480;6.872;2022-11-03T09:52:45;16.70;59.00
17296;DHT22;8766;51.480;6.872;2022-11-03T09:55:14;17.00;58.70
17296;DHT22;8766;51.480;6.872;2022-11-03T09:57:41;17.00;58.50
17296;DHT22;8766;51.480;6.872;2022-11-03T10:00:16;17.00;58.70
17296;DHT22;8766;51.480;6.872;2022-11-03T10:02:44;16.80;58.80
17296;DHT22;8766;51.480;6.872;2022-11-03T10:05:12;16.80;59.00
17296;DHT22;8766;51.480;6.872;2022-11-03T10:07:41;16.70;59.10
17296;DHT22;8766;51.480;6.872;2022-11-03T10:10:15;16.70;59.30
17296;DHT22;8766;51.480;6.872;2022-11-03T10:12:42;16.60;59.40
17296;DHT22;8766;51.480;6.872;2022-11-03T10:15:15;16.50;59.50
17296;DHT22;8766;51.480;6.872;2022-11-03T10:17:42;16.50;59.50
17296;DHT22;8766;51.480;6.872;2022-11-03T10:20:11;16.50;59.60
17296;DHT22;8766;51.480;6.872;2022-11-03T10:22:39;16.50;59.60
17296;DHT22;8766;51.480;6.872;2022-11-03T10:25:33;16.50;59.60
17296;DHT22;8766;51.480;6.872;2022-11-03T10:28:15;16.50;59.60
17296;DHT22;8766;51.480;6.872;2022-11-03T10:30:52;16.40;59.70
17296;DHT22;8766;51.480;6.872;2022-11-03T10:33:27;16.40;59.70
17296;DHT22;8766;51.480;6.872;2022-11-03T10:35:55;16.40;59.80
17296;DHT22;8766;51.480;6.872;2022-11-03T10:38:28;16.30;59.70
17296;DHT22;8766;51.480;6.872;2022-11-03T10:40:55;16.30;59.80
17296;DHT22;8766;51.480;6.872;2022-11-03T10:43:22;16.40;59.80
17296;DHT22;8766;51.480;6.872;2022-11-03T10:46:09;16.40;59.80
17296;DHT22;8766;51.480;6.872;2022-11-03T10:48:36;16.40;59.80
17296;DHT22;8766;51.480;6.872;2022-11-03T10:51:04;16.40;59.70
17296;DHT22;8766;51.480;6.872;2022-11-03T10:53:31;16.40;59.70
17296;DHT22;8766;51.480;6.872;2022-11-03T10:55:58;16.40;59.70
17296;DHT22;8766;51.480;6.872;2022-11-03T10:58:25;16.40;59.70
17296;DHT22;8766;51.480;6.872;2022-11-03T11:00:53;16.40;59.70
17296;DHT22;8766;51.480;6.872;2022-11-03T11:03:20;16.40;59.60
17296;DHT22;8766;51.480;6.872;2022-11-03T11:05:47;16.40;59.60
17296;DHT22;8766;51.480;6.872;2022-11-03T11:08:19;16.50;59.60
17296;DHT22;8766;51.480;6.872;2022-11-03T11:10:47;16.50;59.50
17296;DHT22;8766;51.480;6.872;2022-11-03T11:13:25;16.60;60.10
17296;DHT22;8766;51.480;6.872;2022-11-03T11:15:56;16.60;59.40
17296;DHT22;8766;51.480;6.872;2022-11-03T11:21:57;16.70;59.20
17296;DHT22;8766;51.480;6.872;2022-11-03T11:24:58;16.80;59.00
17296;DHT22;8766;51.480;6.872;2022-11-03T11:27:53;16.90;59.00
17296;DHT22;8766;51.480;6.872;2022-11-03T11:33:31;17.10;58.60
17296;DHT22;8766;51.480;6.872;2022-11-03T11:38:55;17.20;58.30
17296;DHT22;8766;51.480;6.872;2022-11-03T11:47:45;17.50;57.80
17296;DHT22;8766;51.480;6.872;2022-11-03T11:50:32;17.40;58.00
17296;DHT22;8766;51.480;6.872;2022-11-03T11:55:52;17.20;58.40
17296;DHT22;8766;51.480;6.872;2022-11-03T11:58:25;17.20;58.60
17296;DHT22;8766;51.480;6.872;2022-11-03T12:00:59;17.20;58.60
17296;DHT22;8766;51.480;6.872;2022-11-03T12:03:32;17.20;58.60
17296;DHT22;8766;51.480;6.872;2022-11-03T12:06:01;17.10;58.70
17296;DHT22;8766;51.480;6.872;2022-11-03T12:08:29;17.00;58.80
17296;DHT22;8766;51.480;6.872;2022-11-03T12:10:59;17.00;58.90
17296;DHT22;8766;51.480;6.872;2022-11-03T12:13:40;17.00;59.00
17296;DHT22;8766;51.480;6.872;2022-11-03T12:16:08;16.90;59.10
17296;DHT22;8766;51.480;6.872;2022-11-03T12:18:37;16.90;59.10
17296;DHT22;8766;51.480;6.872;2022-11-03T12:21:07;16.90;59.10
17296;DHT22;8766;51.480;6.872;2022-11-03T12:23:39;16.80;59.20
17296;DHT22;8766;51.480;6.872;2022-11-03T12:26:15;16.80;59.20
17296;DHT22;8766;51.480;6.872;2022-11-03T12:28:42;16.80;59.20
17296;DHT22;8766;51.480;6.872;2022-11-03T12:31:10;16.80;59.20
17296;DHT22;8766;51.480;6.872;2022-11-03T12:33:37;16.80;59.20
17296;DHT22;8766;51.480;6.872;2022-11-03T12:36:06;16.80;59.20
17296;DHT22;8766;51.480;6.872;2022-11-03T12:38:33;16.80;59.30
17296;DHT22;8766;51.480;6.872;2022-11-03T12:40:59;16.80;59.30
17296;DHT22;8766;51.480;6.872;2022-11-03T12:43:46;16.80;59.30
17296;DHT22;8766;51.480;6.872;2022-11-03T12:46:13;16.80;59.10
17296;DHT22;8766;51.480;6.872;2022-11-03T12:48:40;17.00;59.00
17296;DHT22;8766;51.480;6.872;2022-11-03T12:51:11;17.00;58.80
17296;DHT22;8766;51.480;6.872;2022-11-03T12:53:38;17.10;58.80
17296;DHT22;8766;51.480;6.872;2022-11-03T12:56:05;17.10;58.70
17296;DHT22;8766;51.480;6.872;2022-11-03T12:58:32;17.10;58.80
17296;DHT22;8766;51.480;6.872;2022-11-03T13:01:00;17.10;58.80
17296;DHT22;8766;51.480;6.872;2022-11-03T13:03:27;17.00;58.80
17296;DHT22;8766;51.480;6.872;2022-11-03T13:05:54;17.00;58.80
17296;DHT22;8766;51.480;6.872;2022-11-03T13:08:22;17.00;58.80
17296;DHT22;8766;51.480;6.872;2022-11-03T13:10:50;17.00;58.90
17296;DHT22;8766;51.480;6.872;2022-11-03T13:13:17;17.00;58.90
17296;DHT22;8766;51.480;6.872;2022-11-03T13:15:44;16.90;59.00
17296;DHT22;8766;51.480;6.872;2022-11-03T13:18:11;16.80;59.10
17296;DHT22;8766;51.480;6.872;2022-11-03T13:20:38;16.80;59.20
17296;DHT22;8766;51.480;6.872;2022-11-03T13:23:05;16.70;59.30
17296;DHT22;8766;51.480;6.872;2022-11-03T13:25:34;16.70;59.40
17296;DHT22;8766;51.480;6.872;2022-11-03T13:28:01;16.70;59.40
17296;DHT22;8766;51.480;6.872;2022-11-03T13:30:29;16.70;59.50
17296;DHT22;8766;51.480;6.872;2022-11-03T13:32:56;16.70;59.40
17296;DHT22;8766;51.480;6.872;2022-11-03T13:35:23;16.70;59.40
17296;DHT22;8766;51.480;6.872;2022-11-03T13:37:50;16.60;59.40
17296;DHT22;8766;51.480;6.872;2022-11-03T13:40:17;16.60;59.50
17296;DHT22;8766;51.480;6.872;2022-11-03T13:42:45;16.60;59.50
17296;DHT22;8766;51.480;6.872;2022-11-03T13:45:12;16.60;59.50
17296;DHT22;8766;51.480;6.872;2022-11-03T13:47:39;16.60;59.50
17296;DHT22;8766;51.480;6.872;2022-11-03T13:50:06;16.60;59.60
17296;DHT22;8766;51.480;6.872;2022-11-03T13:52:33;16.50;59.60
17296;DHT22;8766;51.480;6.872;2022-11-03T13:55:00;16.50;59.60
17296;DHT22;8766;51.480;6.872;2022-11-03T13:57:27;16.50;59.60
17296;DHT22;8766;51.480;6.872;2022-11-03T13:59:55;16.50;59.60
17296;DHT22;8766;51.480;6.872;2022-11-03T14:02:22;16.50;59.60
17296;DHT22;8766;51.480;6.872;2022-11-03T14:04:49;16.60;59.60
17296;DHT22;8766;51.480;6.872;2022-11-03T14:07:17;16.60;59.50
17296;DHT22;8766;51.480;6.872;2022-11-03T14:09:43;16.60;59.50
17296;DHT22;8766;51.480;6.872;2022-11-03T14:12:10;16.60;59.50
17296;DHT22;8766;51.480;6.872;2022-11-03T14:14:56;16.50;59.60
17296;DHT22;8766;51.480;6.872;2022-11-03T14:17:23;16.40;59.70
17296;DHT22;8766;51.480;6.872;2022-11-03T14:19:50;16.40;59.80
17296;DHT22;8766;51.480;6.872;2022-11-03T14:22:18;16.40;59.90
17296;DHT22;8766;51.480;6.872;2022-11-03T14:24:45;16.30;59.90
17296;DHT22;8766;51.480;6.872;2022-11-03T14:27:12;16.30;60.00
17296;DHT22;8766;51.480;6.872;2022-11-03T14:29:40;16.30;59.90
17296;DHT22;8766;51.480;6.872;2022-11-03T14:32:09;16.40;60.00
17296;DHT22;8766;51.480;6.872;2022-11-03T14:34:37;16.30;59.90
17296;DHT22;8766;51.480;6.872;2022-11-03T14:37:03;16.30;60.00
17296;DHT22;8766;51.480;6.872;2022-11-03T14:39:31;16.30;59.90
17296;DHT22;8766;51.480;6.872;2022-11-03T14:41:57;16.30;60.60
17296;DHT22;8766;51.480;6.872;2022-11-03T14:44:30;16.30;60.00
17296;DHT22;8766;51.480;6.872;2022-11-03T14:46:57;16.20;60.00
17296;DHT22;8766;51.480;6.872;2022-11-03T14:49:27;16.20;60.00
17296;DHT22;8766;51.480;6.872;2022-11-03T14:51:54;16.20;60.10
17296;DHT22;8766;51.480;6.872;2022-11-03T14:54:22;16.20;60.20
17296;DHT22;8766;51.480;6.872;2022-11-03T14:56:49;16.10;60.20
17296;DHT22;8766;51.480;6.872;2022-11-03T14:59:16;16.10;60.30
17296;DHT22;8766;51.480;6.872;2022-11-03T15:01:43;16.10;60.40
17296;DHT22;8766;51.480;6.872;2022-11-03T15:04:09;16.10;60.50
17296;DHT22;8766;51.480;6.872;2022-11-03T15:06:39;16.00;60.40
17296;DHT22;8766;51.480;6.872;2022-11-03T15:09:07;16.00;60.60
17296;DHT22;8766;51.480;6.872;2022-11-03T15:11:34;16.00;60.60
17296;DHT22;8766;51.480;6.872;2022-11-03T15:14:02;16.00;60.70
17296;DHT22;8766;51.480;6.872;2022-11-03T15:16:29;15.90;60.70
17296;DHT22;8766;51.480;6.872;2022-11-03T15:18:56;15.90;60.80
17296;DHT22;8766;51.480;6.872;2022-11-03T15:21:23;15.80;60.80
17296;DHT22;8766;51.480;6.872;2022-11-03T15:23:52;15.80;60.90
17296;DHT22;8766;51.480;6.872;2022-11-03T15:26:19;15.80;61.00
17296;DHT22;8766;51.480;6.872;2022-11-03T15:28:46;15.70;61.00
17296;DHT22;8766;51.480;6.872;2022-11-03T15:31:14;15.70;61.20
17296;DHT22;8766;51.480;6.872;2022-11-03T15:33:42;15.60;61.40
17296;DHT22;8766;51.480;6.872;2022-11-03T15:36:09;15.50;61.50
17296;DHT22;8766;51.480;6.872;2022-11-03T15:38:36;15.50;61.70
17296;DHT22;8766;51.480;6.872;2022-11-03T15:41:04;15.40;61.80
17296;DHT22;8766;51.480;6.872;2022-11-03T15:43:45;15.40;61.90
17296;DHT22;8766;51.480;6.872;2022-11-03T15:46:13;15.30;61.90
17296;DHT22;8766;51.480;6.872;2022-11-03T15:48:40;15.30;62.10
17296;DHT22;8766;51.480;6.872;2022-11-03T15:51:08;15.20;62.30
17296;DHT22;8766;51.480;6.872;2022-11-03T15:53:35;15.10;62.40
17296;DHT22;8766;51.480;6.872;2022-11-03T15:56:03;15.10;62.50
17296;DHT22;8766;51.480;6.872;2022-11-03T15:58:31;15.00;62.50
17296;DHT22;8766;51.480;6.872;2022-11-03T16:00:59;15.00;62.60
17296;DHT22;8766;51.480;6.872;2022-11-03T16:03:27;15.00;62.60
17296;DHT22;8766;51.480;6.872;2022-11-03T16:05:53;15.00;62.70
17296;DHT22;8766;51.480;6.872;2022-11-03T16:08:20;14.90;62.70
17296;DHT22;8766;51.480;6.872;2022-11-03T16:10:47;14.90;62.80
17296;DHT22;8766;51.480;6.872;2022-11-03T16:13:16;14.90;62.90
17296;DHT22;8766;51.480;6.872;2022-11-03T16:15:43;14.90;63.00
17296;DHT22;8766;51.480;6.872;2022-11-03T16:18:09;14.80;63.00
17296;DHT22;8766;51.480;6.872;2022-11-03T16:20:36;14.80;63.00
17296;DHT22;8766;51.480;6.872;2022-11-03T16:23:03;14.80;63.10
17296;DHT22;8766;51.480;6.872;2022-11-03T16:25:30;14.80;63.10
17296;DHT22;8766;51.480;6.872;2022-11-03T16:27:57;14.80;63.20